createdAt,value
2023-05-05T00:02:18.018Z,74.43
2023-05-05T00:04:46.146Z,74.79
2023-05-05T00:07:14.091Z,74.23
2023-05-05T00:09:42.972Z,73.93
2023-05-05T00:12:11.053Z,73.72
2023-05-05T00:14:38.987Z,73.65
2023-05-05T00:17:06.942Z,73.59
2023-05-05T00:19:34.900Z,73.53
2023-05-05T00:22:02.923Z,73.08
2023-05-05T00:24:31.001Z,73.16
2023-05-05T00:26:58.963Z,73.01
2023-05-05T00:29:26.918Z,72.75
2023-05-05T00:31:54.905Z,73.07
2023-05-05T00:34:22.936Z,73.19
2023-05-05T00:36:50.874Z,72.94
2023-05-05T00:39:18.875Z,73.48
2023-05-05T00:41:46.840Z,73.68
2023-05-05T00:44:15.062Z,73.09
2023-05-05T00:46:43.284Z,72.82
2023-05-05T00:49:12.498Z,73.01
2023-05-05T00:51:40.511Z,73.01
2023-05-05T00:54:08.769Z,73.32
2023-05-05T00:56:36.798Z,73.18
2023-05-05T00:59:04.808Z,73.27
2023-05-05T01:01:32.851Z,73.03
2023-05-05T01:04:01.533Z,72.63
2023-05-05T01:06:54.689Z,73.22
2023-05-05T01:09:24.924Z,74.36
2023-05-05T01:12:05.161Z,75.23
2023-05-05T01:14:43.343Z,75.34
2023-05-05T01:17:17.315Z,75.45
2023-05-05T01:19:52.568Z,76.28
2023-05-05T01:22:23.370Z,77.04
2023-05-05T01:25:06.579Z,77.92
2023-05-05T01:28:11.413Z,78.43
2023-05-05T01:31:01.762Z,79.58
2023-05-05T01:33:34.688Z,81.29
2023-05-05T01:36:07.193Z,82.03
2023-05-05T01:38:40.449Z,82.68
2023-05-05T01:41:18.956Z,83.86
2023-05-05T01:43:48.726Z,84.18
2023-05-05T01:46:16.957Z,84.62
2023-05-05T01:48:45.000Z,86.07
2023-05-05T01:51:12.974Z,86.71
2023-05-05T01:53:41.621Z,87.73
2023-05-05T01:56:10.343Z,88.75
2023-05-05T01:58:38.440Z,90.86
2023-05-05T02:01:06.439Z,91.37
2023-05-05T02:03:34.506Z,92.49
2023-05-05T02:06:02.494Z,93.57
2023-05-05T02:08:30.465Z,95.36
2023-05-05T02:10:58.449Z,97.36
2023-05-05T02:13:26.530Z,96.76
2023-05-05T02:15:54.698Z,98.35
2023-05-05T02:18:23.077Z,99.46
2023-05-05T02:20:53.204Z,99.10
2023-05-05T02:23:21.492Z,100.00
2023-05-05T02:25:50.630Z,100.00
2023-05-05T02:28:21.338Z,100.00
2023-05-05T02:30:54.513Z,100.00
2023-05-05T02:33:22.483Z,100.00
2023-05-05T02:35:51.120Z,100.00
2023-05-05T02:38:19.185Z,100.00
2023-05-05T02:40:49.201Z,100.00
2023-05-05T02:43:19.742Z,100.00
2023-05-05T02:45:47.879Z,100.00
2023-05-05T02:48:16.160Z,100.00
2023-05-05T02:50:44.100Z,100.00
2023-05-05T02:53:16.518Z,100.00
2023-05-05T02:55:52.249Z,100.00
2023-05-05T02:58:27.310Z,100.00
2023-05-05T03:01:25.860Z,100.00
2023-05-05T03:04:06.452Z,100.00
2023-05-05T03:06:39.887Z,100.00
2023-05-05T03:09:16.098Z,100.00
2023-05-05T03:11:54.981Z,100.00
2023-05-05T03:14:23.035Z,100.00
2023-05-05T03:16:51.400Z,100.00
2023-05-05T03:19:19.414Z,100.00
2023-05-05T03:21:48.695Z,100.00
2023-05-05T03:24:17.836Z,100.00
2023-05-05T03:26:50.420Z,100.00
2023-05-05T03:29:20.519Z,100.00
2023-05-05T03:31:49.028Z,100.00
2023-05-05T03:34:17.188Z,100.00
2023-05-05T03:36:47.027Z,100.00
2023-05-05T03:39:16.154Z,100.00
2023-05-05T03:41:44.234Z,100.00
2023-05-05T03:44:12.609Z,100.00
2023-05-05T03:46:40.554Z,100.00
2023-05-05T03:49:10.073Z,100.00
2023-05-05T03:51:38.443Z,100.00
2023-05-05T03:54:06.512Z,100.00
2023-05-05T03:56:34.673Z,100.00
2023-05-05T03:59:02.695Z,100.00
2023-05-05T04:01:31.800Z,100.00
2023-05-05T04:04:02.666Z,100.00
2023-05-05T04:06:31.950Z,100.00
2023-05-05T04:09:00.029Z,100.00
2023-05-05T04:11:29.389Z,100.00
2023-05-05T04:13:58.058Z,100.00
2023-05-05T04:16:26.466Z,100.00
2023-05-05T04:18:55.492Z,100.00
2023-05-05T04:21:24.211Z,100.00
2023-05-05T04:23:52.919Z,100.00
2023-05-05T04:26:21.433Z,100.00
2023-05-05T04:28:51.747Z,100.00
2023-05-05T04:31:20.191Z,100.00
2023-05-05T04:33:48.326Z,100.00
2023-05-05T04:36:16.366Z,100.00
2023-05-05T04:38:44.533Z,100.00
2023-05-05T04:41:12.974Z,100.00
2023-05-05T04:43:41.416Z,100.00
2023-05-05T04:46:09.504Z,100.00
2023-05-05T04:48:40.080Z,100.00
2023-05-05T04:51:08.332Z,100.00
2023-05-05T04:53:36.721Z,100.00
2023-05-05T04:56:04.813Z,100.00
2023-05-05T04:58:34.444Z,100.00
2023-05-05T05:01:02.368Z,100.00
2023-05-05T05:03:32.257Z,100.00
2023-05-05T05:06:00.450Z,100.00
2023-05-05T05:08:30.584Z,100.00
2023-05-05T05:10:59.420Z,100.00
2023-05-05T05:13:27.413Z,100.00
2023-05-05T05:15:55.372Z,100.00
2023-05-05T05:18:23.688Z,100.00
2023-05-05T05:20:52.127Z,100.00
2023-05-05T05:23:20.234Z,100.00
2023-05-05T05:25:48.237Z,100.00
2023-05-05T05:28:16.983Z,100.00
2023-05-05T05:30:48.871Z,100.00
2023-05-05T05:33:16.886Z,100.00
2023-05-05T05:35:47.783Z,100.00
2023-05-05T05:38:17.667Z,100.00
2023-05-05T05:40:46.138Z,100.00
2023-05-05T05:43:14.292Z,100.00
2023-05-05T05:45:42.289Z,100.00
2023-05-05T05:48:11.125Z,100.00
2023-05-05T05:50:39.330Z,100.00
2023-05-05T05:53:07.341Z,100.00
2023-05-05T05:55:35.773Z,100.00
2023-05-05T05:58:03.821Z,100.00
2023-05-05T06:00:31.862Z,100.00
2023-05-05T06:03:02.847Z,100.00
2023-05-05T06:05:32.525Z,100.00
2023-05-05T06:08:00.607Z,100.00
2023-05-05T06:10:28.777Z,100.00
2023-05-05T06:13:06.691Z,100.00
2023-05-05T06:15:35.626Z,100.00
2023-05-05T06:18:04.414Z,100.00
2023-05-05T06:20:32.430Z,100.00
2023-05-05T06:23:00.569Z,100.00
2023-05-05T06:25:29.659Z,100.00
2023-05-05T06:27:57.821Z,100.00
2023-05-05T06:30:26.372Z,100.00
2023-05-05T06:32:54.428Z,99.62
2023-05-05T06:35:22.541Z,99.58
2023-05-05T06:37:50.516Z,99.31
2023-05-05T06:40:18.596Z,99.88
2023-05-05T06:42:46.512Z,98.95
2023-05-05T06:45:17.889Z,98.92
2023-05-05T06:47:45.974Z,98.42
2023-05-05T06:50:13.994Z,98.29
2023-05-05T06:52:41.902Z,97.96
2023-05-05T06:55:10.035Z,97.02
2023-05-05T06:57:38.078Z,95.24
2023-05-05T07:00:09.826Z,95.80
2023-05-05T07:02:38.850Z,95.29
2023-05-05T07:05:07.478Z,94.54
2023-05-05T07:07:36.473Z,94.24
2023-05-05T07:10:05.102Z,94.21
2023-05-05T07:12:33.204Z,94.51
2023-05-05T07:15:07.048Z,94.13
2023-05-05T07:17:43.841Z,93.99
2023-05-05T07:20:12.336Z,93.41
2023-05-05T07:22:40.499Z,94.05
2023-05-05T07:25:08.739Z,93.53
2023-05-05T07:27:37.342Z,93.14
2023-05-05T07:30:11.138Z,92.55
2023-05-05T07:32:41.428Z,92.86
2023-05-05T07:35:09.477Z,90.45
2023-05-05T07:37:37.488Z,90.62
2023-05-05T07:40:06.331Z,90.00
2023-05-05T07:42:34.505Z,88.33
2023-05-05T07:45:02.591Z,87.38
2023-05-05T07:47:30.648Z,85.70
2023-05-05T07:49:58.741Z,84.89
2023-05-05T07:52:43.730Z,82.74
2023-05-05T07:55:14.482Z,83.06
2023-05-05T07:57:42.467Z,82.49
2023-05-05T08:00:11.422Z,81.81
2023-05-05T08:02:42.580Z,80.46
2023-05-05T08:05:11.688Z,79.56
2023-05-05T08:07:41.653Z,79.16
2023-05-05T08:10:12.202Z,76.70
2023-05-05T08:12:40.653Z,76.62
2023-05-05T08:15:09.291Z,75.44
2023-05-05T08:17:47.831Z,75.10
2023-05-05T08:20:16.615Z,74.36
2023-05-05T08:22:45.331Z,75.13
2023-05-05T08:25:13.607Z,73.48
2023-05-05T08:27:42.590Z,72.60
2023-05-05T08:30:11.247Z,72.40
2023-05-05T08:32:39.209Z,72.44
2023-05-05T08:35:08.310Z,72.80
2023-05-05T08:37:36.793Z,73.01
2023-05-05T08:40:05.586Z,72.62
2023-05-05T08:42:38.690Z,73.10
2023-05-05T08:45:08.795Z,71.75
2023-05-05T08:47:37.502Z,71.63
2023-05-05T08:50:06.337Z,71.19
2023-05-05T08:52:44.897Z,70.25
2023-05-05T08:55:15.716Z,69.34
2023-05-05T08:57:51.751Z,68.38
2023-05-05T09:00:20.050Z,68.29
2023-05-05T09:02:48.604Z,66.90
2023-05-05T09:05:16.925Z,66.28
2023-05-05T09:07:45.024Z,65.45
2023-05-05T09:10:13.117Z,65.33
2023-05-05T09:12:41.424Z,62.55
2023-05-05T09:17:59.380Z,59.24
2023-05-05T09:20:35.372Z,57.44
2023-05-05T09:23:11.337Z,57.75
2023-05-05T09:25:40.041Z,55.63
2023-05-05T09:28:12.206Z,55.16
2023-05-05T09:30:41.236Z,53.19
2023-05-05T09:33:09.455Z,52.42
2023-05-05T09:35:56.194Z,50.90
2023-05-05T09:38:24.750Z,49.90
2023-05-05T09:40:53.373Z,49.27
2023-05-05T09:43:22.183Z,50.34
2023-05-05T09:45:50.527Z,50.13
2023-05-05T09:48:26.445Z,48.56
2023-05-05T09:50:55.026Z,48.59
2023-05-05T09:53:23.827Z,48.84
2023-05-05T09:55:59.451Z,48.22
2023-05-05T09:58:28.845Z,48.24
2023-05-05T10:00:58.073Z,47.02
2023-05-05T10:03:26.394Z,47.40
2023-05-05T10:05:59.741Z,49.13
2023-05-05T10:08:29.530Z,48.16
2023-05-05T10:11:07.365Z,47.23
2023-05-05T10:13:41.093Z,45.38
2023-05-05T10:16:09.763Z,44.74
2023-05-05T10:18:38.031Z,44.82
2023-05-05T10:21:06.490Z,46.68
2023-05-05T10:23:34.601Z,45.92
2023-05-05T10:26:05.604Z,44.63
2023-05-05T10:28:34.570Z,45.51
2023-05-05T10:31:07.634Z,44.11
2023-05-05T10:33:45.428Z,44.24
2023-05-05T10:36:14.259Z,46.64
2023-05-05T10:38:42.230Z,47.29
2023-05-05T10:41:10.146Z,49.06
2023-05-05T10:43:38.531Z,48.52
2023-05-05T10:46:06.589Z,48.92
2023-05-05T10:48:37.439Z,49.26
2023-05-05T10:51:12.140Z,46.59
2023-05-05T10:53:44.840Z,47.23
2023-05-05T10:56:32.705Z,48.30
2023-05-05T10:59:01.106Z,48.76
2023-05-05T11:01:33.078Z,48.53
2023-05-05T11:04:18.157Z,48.53
2023-05-05T11:07:08.011Z,48.38
2023-05-05T11:09:38.861Z,48.30
2023-05-05T11:12:07.164Z,48.64
2023-05-05T11:14:35.568Z,48.41
2023-05-05T11:17:03.695Z,47.82
2023-05-05T11:19:43.734Z,47.29
2023-05-05T11:22:11.804Z,46.52
2023-05-05T11:24:42.759Z,46.37
2023-05-05T11:27:11.619Z,46.62
2023-05-05T11:30:13.920Z,45.60
2023-05-05T11:32:42.139Z,45.79
2023-05-05T11:35:10.068Z,46.06
2023-05-05T11:37:38.100Z,45.88
2023-05-05T11:40:32.585Z,45.48
2023-05-05T11:43:07.476Z,44.80
2023-05-05T11:45:36.076Z,43.67
2023-05-05T11:48:28.981Z,44.25
2023-05-05T11:50:58.116Z,43.90
2023-05-05T11:53:26.126Z,42.77
2023-05-05T11:56:09.820Z,42.24
2023-05-05T11:58:38.285Z,41.78
2023-05-05T12:01:09.527Z,41.46
2023-05-05T12:03:38.018Z,41.44
2023-05-05T12:06:07.097Z,40.59
2023-05-05T12:08:39.016Z,40.24
2023-05-05T12:11:08.273Z,39.52
2023-05-05T12:13:36.495Z,38.58
2023-05-05T12:16:11.652Z,38.82
2023-05-05T12:18:40.245Z,38.91
2023-05-05T12:21:20.718Z,38.37
2023-05-05T12:23:48.725Z,37.26
2023-05-05T12:26:29.170Z,36.72
2023-05-05T12:29:00.591Z,37.63
2023-05-05T12:31:38.412Z,36.88
2023-05-05T12:34:06.999Z,35.95
2023-05-05T12:36:35.763Z,35.53
2023-05-05T12:39:07.245Z,35.89
2023-05-05T12:41:35.240Z,36.05
2023-05-05T12:44:03.375Z,35.23
2023-05-05T12:46:32.025Z,35.59
2023-05-05T12:49:05.495Z,35.71
2023-05-05T12:51:36.829Z,34.89
2023-05-05T12:54:09.692Z,34.49
2023-05-05T12:56:37.744Z,34.65
2023-05-05T12:59:06.879Z,35.01
2023-05-05T13:01:35.876Z,34.98
2023-05-05T13:04:07.929Z,35.75
2023-05-05T13:06:36.266Z,35.58
2023-05-05T13:09:05.406Z,35.58
2023-05-05T13:11:37.683Z,35.58
2023-05-05T13:14:06.603Z,35.49
2023-05-05T13:16:34.824Z,35.95
2023-05-05T13:19:02.867Z,35.40
2023-05-05T13:21:30.883Z,35.70
2023-05-05T13:24:08.207Z,36.51
2023-05-05T13:26:40.758Z,35.91
2023-05-05T13:29:08.724Z,35.98
2023-05-05T13:31:36.944Z,36.76
2023-05-05T13:34:05.328Z,37.02
2023-05-05T13:36:33.408Z,37.04
2023-05-05T13:39:01.808Z,37.02
2023-05-05T13:41:29.999Z,38.26
2023-05-05T13:43:57.896Z,38.76
2023-05-05T13:46:26.143Z,39.69
2023-05-05T13:48:56.659Z,39.05
2023-05-05T13:51:24.985Z,38.68
2023-05-05T13:53:53.211Z,38.27
2023-05-05T13:56:23.530Z,38.49
2023-05-05T13:58:52.049Z,38.31
2023-05-05T14:01:20.256Z,38.24
2023-05-05T14:03:48.389Z,38.33
2023-05-05T14:06:16.559Z,38.47
2023-05-05T14:08:44.753Z,38.85
2023-05-05T14:11:18.150Z,38.55
2023-05-05T14:13:46.636Z,39.09
2023-05-05T14:16:14.837Z,39.45
2023-05-05T14:18:43.137Z,39.53
2023-05-05T14:21:11.369Z,39.35
2023-05-05T14:23:39.376Z,39.04
2023-05-05T14:26:09.081Z,38.07
2023-05-05T14:28:37.335Z,38.03
2023-05-05T14:31:05.479Z,38.52
2023-05-05T14:33:33.535Z,38.27
2023-05-05T14:36:01.681Z,38.56
2023-05-05T14:38:29.814Z,38.52
2023-05-05T14:40:57.810Z,38.04
2023-05-05T14:43:25.816Z,38.25
2023-05-05T14:45:53.893Z,39.21
2023-05-05T14:48:22.473Z,39.95
2023-05-05T14:50:50.892Z,39.44
2023-05-05T14:53:21.452Z,39.24
2023-05-05T14:55:49.591Z,39.32
2023-05-05T14:58:22.323Z,39.58
2023-05-05T15:00:52.726Z,39.31
2023-05-05T15:03:20.908Z,39.28
2023-05-05T15:05:49.211Z,39.54
2023-05-05T15:08:18.880Z,39.54
2023-05-05T15:10:47.032Z,39.39
2023-05-05T15:13:15.329Z,38.92
2023-05-05T15:15:43.561Z,38.97
2023-05-05T15:18:11.789Z,39.34
2023-05-05T15:20:39.686Z,40.12
2023-05-05T15:23:07.673Z,40.00
2023-05-05T15:25:35.769Z,39.98
2023-05-05T15:28:03.809Z,40.65
2023-05-05T15:30:31.847Z,40.48
2023-05-05T15:32:59.839Z,40.22
2023-05-05T15:35:27.856Z,40.38
2023-05-05T15:37:56.012Z,40.90
2023-05-05T15:40:24.234Z,41.23
2023-05-05T15:42:52.662Z,41.64
2023-05-05T15:45:20.707Z,42.14
2023-05-05T15:47:50.172Z,41.75
2023-05-05T15:50:18.386Z,43.34
2023-05-05T15:52:48.150Z,43.92
2023-05-05T15:55:17.895Z,44.46
2023-05-05T15:57:46.126Z,44.84
2023-05-05T16:00:14.630Z,45.39
2023-05-05T16:02:42.704Z,45.63
2023-05-05T16:05:11.265Z,45.96
2023-05-05T16:07:39.268Z,46.43
2023-05-05T16:10:08.316Z,46.52
2023-05-05T16:12:36.673Z,46.64
2023-05-05T16:15:05.138Z,46.31
2023-05-05T16:17:33.156Z,45.85
2023-05-05T16:20:01.408Z,45.23
2023-05-05T16:22:29.519Z,44.36
2023-05-05T16:24:57.540Z,44.44
2023-05-05T16:27:26.617Z,45.22
2023-05-05T16:29:54.656Z,45.70
2023-05-05T16:32:22.825Z,46.58
2023-05-05T16:34:50.843Z,47.09
2023-05-05T16:37:19.084Z,47.51
2023-05-05T16:39:47.380Z,47.47
2023-05-05T16:42:15.290Z,47.46
2023-05-05T16:44:43.247Z,47.97
2023-05-05T16:47:11.259Z,48.70
2023-05-05T16:49:39.241Z,48.79
2023-05-05T16:52:07.195Z,48.78
2023-05-05T16:54:35.217Z,49.33
2023-05-05T16:57:03.896Z,49.51
2023-05-05T16:59:31.869Z,49.49
2023-05-05T17:01:59.888Z,49.66
2023-05-05T17:04:27.951Z,50.35
2023-05-05T17:06:57.623Z,50.74
2023-05-05T17:09:25.831Z,51.16
2023-05-05T17:11:53.903Z,51.38
2023-05-05T17:14:21.866Z,51.59
2023-05-05T17:16:50.215Z,52.29
2023-05-05T17:19:18.238Z,53.30
2023-05-05T17:21:46.356Z,53.22
2023-05-05T17:24:15.274Z,53.37
2023-05-05T17:26:43.508Z,53.81
2023-05-05T17:29:13.071Z,54.11
2023-05-05T17:31:42.154Z,54.20
2023-05-05T17:34:10.570Z,54.68
2023-05-05T17:36:38.621Z,55.59
2023-05-05T17:39:06.619Z,55.68
2023-05-05T17:41:34.737Z,55.85
2023-05-05T17:44:02.797Z,55.80
2023-05-05T17:46:30.902Z,55.78
2023-05-05T17:48:59.170Z,56.04
2023-05-05T17:51:27.529Z,56.32
2023-05-05T17:53:55.502Z,56.63
2023-05-05T17:56:23.448Z,56.34
2023-05-05T17:58:51.448Z,56.45
2023-05-05T18:01:26.468Z,56.33
2023-05-05T18:03:54.913Z,56.59
2023-05-05T18:06:22.942Z,56.98
2023-05-05T18:08:50.947Z,56.87
2023-05-05T18:11:21.288Z,57.11
2023-05-05T18:13:49.412Z,57.60
2023-05-05T18:16:17.469Z,57.83
2023-05-05T18:18:45.738Z,57.99
2023-05-05T18:21:13.867Z,57.78
2023-05-05T18:23:42.036Z,57.53
2023-05-05T18:26:10.193Z,57.69
2023-05-05T18:28:38.213Z,57.51
2023-05-05T18:31:06.829Z,57.73
2023-05-05T18:33:35.547Z,58.10
2023-05-05T18:36:04.011Z,58.30
2023-05-05T18:38:32.535Z,58.55
2023-05-05T18:41:00.705Z,58.36
2023-05-05T18:43:28.760Z,58.97
2023-05-05T18:45:56.819Z,58.85
2023-05-05T18:48:24.882Z,58.69
2023-05-05T18:50:53.041Z,58.97
2023-05-05T18:53:21.146Z,59.21
2023-05-05T18:55:49.464Z,59.55
2023-05-05T18:58:17.744Z,59.49
2023-05-05T19:00:45.766Z,59.57
2023-05-05T19:03:14.072Z,59.66
2023-05-05T19:05:42.137Z,59.69
2023-05-05T19:08:10.288Z,60.20
2023-05-05T19:10:38.220Z,60.44
2023-05-05T19:13:06.748Z,60.80
2023-05-05T19:15:35.409Z,60.92
2023-05-05T19:18:06.438Z,61.13
2023-05-05T19:20:34.534Z,61.33
2023-05-05T19:23:04.498Z,61.34
2023-05-05T19:25:32.555Z,61.80
2023-05-05T19:28:00.833Z,61.69
2023-05-05T19:30:28.865Z,62.25
2023-05-05T19:32:57.164Z,62.59
2023-05-05T19:35:26.103Z,62.43
2023-05-05T19:37:54.012Z,62.57
2023-05-05T19:40:22.110Z,62.84
2023-05-05T19:42:50.329Z,62.92
2023-05-05T19:45:18.397Z,63.22
2023-05-05T19:47:46.554Z,63.28
2023-05-05T19:50:16.133Z,63.70
2023-05-05T19:52:44.256Z,63.97
2023-05-05T19:55:13.353Z,63.91
2023-05-05T19:57:41.864Z,64.23
2023-05-05T20:00:11.225Z,64.80
2023-05-05T20:02:39.509Z,64.74
2023-05-05T20:05:07.920Z,64.87
2023-05-05T20:07:35.869Z,64.75
2023-05-05T20:10:04.510Z,65.09
2023-05-05T20:12:32.529Z,64.92
2023-05-05T20:15:00.670Z,65.17
2023-05-05T20:17:29.543Z,65.34
2023-05-05T20:19:58.090Z,65.57
2023-05-05T20:22:26.646Z,65.45
2023-05-05T20:24:54.736Z,65.80
2023-05-05T20:27:22.787Z,66.11
2023-05-05T20:29:50.705Z,66.41
2023-05-05T20:32:20.814Z,66.32
2023-05-05T20:34:49.261Z,66.41
2023-05-05T20:37:17.294Z,66.79
2023-05-05T20:39:45.412Z,67.60
2023-05-05T20:42:13.899Z,67.72
2023-05-05T20:44:42.364Z,67.80
2023-05-05T20:47:14.427Z,68.04
2023-05-05T20:49:42.510Z,68.23
2023-05-05T20:52:10.675Z,68.09
2023-05-05T20:54:39.469Z,67.96
2023-05-05T20:57:07.983Z,68.26
2023-05-05T20:59:36.243Z,67.95
2023-05-05T21:02:05.881Z,67.94
2023-05-05T21:04:34.029Z,67.78
2023-05-05T21:07:02.019Z,67.89
2023-05-05T21:09:30.114Z,67.81
2023-05-05T21:11:58.135Z,68.20
2023-05-05T21:14:27.803Z,68.19
2023-05-05T21:16:56.122Z,68.21
2023-05-05T21:19:24.438Z,68.26
2023-05-05T21:21:54.151Z,68.43
2023-05-05T21:24:22.263Z,68.34
2023-05-05T21:26:51.517Z,68.61
2023-05-05T21:29:19.683Z,68.43
2023-05-05T21:31:47.653Z,68.70
2023-05-05T21:34:15.677Z,68.71
2023-05-05T21:36:43.669Z,68.91
2023-05-05T21:39:12.240Z,68.88
2023-05-05T21:41:40.627Z,68.87
2023-05-05T21:44:09.723Z,69.08
2023-05-05T21:46:38.872Z,69.27
2023-05-05T21:49:14.379Z,69.29
2023-05-05T21:51:42.562Z,69.45
2023-05-05T21:54:10.742Z,69.18
2023-05-05T21:56:38.703Z,69.70
2023-05-05T21:59:06.686Z,69.87
2023-05-05T22:01:35.107Z,69.86
2023-05-05T22:04:06.229Z,69.93
2023-05-05T22:06:34.317Z,70.11
2023-05-05T22:09:02.213Z,70.04
2023-05-05T22:11:30.098Z,70.05
2023-05-05T22:13:58.496Z,70.41
2023-05-05T22:16:26.505Z,70.38
2023-05-05T22:18:54.479Z,70.68
2023-05-05T22:21:22.438Z,71.19
2023-05-05T22:23:50.449Z,71.19
2023-05-05T22:26:18.425Z,71.41
2023-05-05T22:28:46.301Z,71.77
2023-05-05T22:31:14.242Z,72.11
2023-05-05T22:33:42.298Z,72.49
2023-05-05T22:36:11.573Z,72.68
2023-05-05T22:38:39.542Z,72.71
2023-05-05T22:41:08.257Z,72.78
2023-05-05T22:43:37.475Z,72.74
2023-05-05T22:46:05.844Z,72.60
2023-05-05T22:48:34.106Z,72.75
2023-05-05T22:51:03.774Z,72.85
2023-05-05T22:53:32.006Z,72.76
2023-05-05T22:56:01.112Z,72.91
2023-05-05T22:58:29.305Z,73.06
2023-05-05T23:00:58.439Z,72.85
2023-05-05T23:03:26.756Z,72.66
2023-05-05T23:05:54.852Z,72.88
2023-05-05T23:08:24.114Z,73.13
2023-05-05T23:10:53.418Z,73.08
2023-05-05T23:13:21.457Z,72.90
2023-05-05T23:15:49.416Z,72.83
2023-05-05T23:18:17.332Z,72.79
2023-05-05T23:20:45.621Z,73.03
2023-05-05T23:23:13.688Z,72.94
2023-05-05T23:25:41.637Z,72.95
2023-05-05T23:28:10.153Z,73.29
2023-05-05T23:30:38.130Z,73.27
2023-05-05T23:33:06.330Z,73.25
2023-05-05T23:35:34.321Z,73.29
2023-05-05T23:38:02.281Z,72.78
2023-05-05T23:40:30.362Z,72.83
2023-05-05T23:42:58.888Z,72.89
2023-05-05T23:45:26.900Z,72.74
2023-05-05T23:47:55.163Z,72.68
2023-05-05T23:50:23.207Z,72.47
2023-05-05T23:52:51.516Z,72.38
2023-05-05T23:55:19.564Z,72.14
2023-05-05T23:57:47.521Z,72.05
